This is the latest recevied weather packets stored in our database for station/object IU6BJT. If no packets are shown the sender has not sent any weather packets the latest 10 day(s).
| Time | Temp. | Humidity | Pressure | Rain* | Wind** | Luminosity | Snow |
|---|---|---|---|---|---|---|---|
| 1777470034 | 20.56° C | 75% | 1015.4 hPa | 0 mm | - | - | - |
| 1777467644 | 20° C | 77% | 1015.5 hPa | 0 mm | - | - | - |
| 1777465231 | 20° C | 77% | 1015.5 hPa | 0 mm | - | - | - |
| 1777462216 | 20.56° C | 75% | 1015.5 hPa | 0 mm | - | - | - |
| 1777459824 | 20° C | 73% | 1015.7 hPa | 0 mm | - | - | - |
| 1777459221 | 20° C | 75% | 1015.8 hPa | 0 mm | - | - | - |
| 1777457432 | 20° C | 69% | 1015.7 hPa | 0 mm | - | - | - |
| 1777450217 | 20° C | 73% | 1015.9 hPa | 0 mm | - | - | - |
| 1777443624 | 15.56° C | 78% | 1015.3 hPa | 0 mm | - | - | - |
| 1777441855 | 13.89° C | 82% | 1015.4 hPa | 0 mm | - | - | - |
| 1777441252 | 13.33° C | 84% | 1015.3 hPa | 0 mm | - | - | - |
| 1777438820 | 12.22° C | 88% | 1015.3 hPa | 0 mm | - | - | - |
| 1777433455 | 11.67° C | 92% | 1014.7 hPa | 0 mm | - | - | - |
| 1777432832 | 11.67° C | 93% | 1014.7 hPa | 0 mm | - | - | - |
| 1777431043 | 12.22° C | 92% | 1014.7 hPa | 0 mm | - | - | - |
| 1777429817 | 12.78° C | 92% | 1014.6 hPa | 0 mm | - | - | - |
| 1777427426 | 13.33° C | 91% | 1014.4 hPa | 0 mm | - | - | - |
| 1777425034 | 13.33° C | 92% | 1014.3 hPa | 0 mm | - | - | - |
| 1777417216 | 15.56° C | 89% | 1014.5 hPa | 0 mm | - | - | - |
| 1777413016 | 16.11° C | 85% | 1014.5 hPa | 0 mm | - | - | - |
| 1777412434 | 16.67° C | 85% | 1014.5 hPa | 0 mm | - | - | - |
| 1777410022 | 17.78° C | 82% | 1014.5 hPa | 0 mm | - | - | - |
| 1777406425 | 18.89° C | 76% | 1014.3 hPa | 0 mm | - | - | - |
| 1777401623 | 18.89° C | 75% | 1013.7 hPa | 0 mm | - | - | - |
| 1777398628 | 19.44° C | 75% | 1013.5 hPa | 0.76 mm | - | - | - |
* Rain latest hour (hover to see other rain measurements)
** Current wind speed in m/s (hover to see current wind gust speed)